createdAt,value
2024-03-07T00:02:50.855Z,31.53
2024-03-07T00:06:52.499Z,27.37
2024-03-07T00:10:54.081Z,30.57
2024-03-07T00:14:55.694Z,33.40
2024-03-07T00:18:57.126Z,30.50
2024-03-07T00:22:58.613Z,31.30
2024-03-07T00:27:00.095Z,31.13
2024-03-07T00:31:01.640Z,29.67
2024-03-07T00:35:06.138Z,29.63
2024-03-07T00:39:12.478Z,30.40
2024-03-07T00:43:14.342Z,31.63
2024-03-07T00:47:18.430Z,32.10
2024-03-07T00:51:19.867Z,29.57
2024-03-07T00:55:21.496Z,32.03
2024-03-07T00:59:23.187Z,32.60
2024-03-07T01:03:24.773Z,33.50
2024-03-07T01:07:28.367Z,31.50
2024-03-07T01:11:30.141Z,30.60
2024-03-07T01:15:32.863Z,28.50
2024-03-07T01:19:34.514Z,31.03
2024-03-07T01:23:36.056Z,29.13
2024-03-07T01:27:37.331Z,32.93
2024-03-07T01:31:38.646Z,33.77
2024-03-07T01:35:40.177Z,32.30
2024-03-07T01:39:41.508Z,32.97
2024-03-07T01:43:43.519Z,30.83
2024-03-07T01:47:45.862Z,31.27
2024-03-07T01:51:47.244Z,30.53
2024-03-07T01:55:50.056Z,31.93
2024-03-07T01:59:51.896Z,30.23
2024-03-07T02:03:53.330Z,28.60
2024-03-07T02:07:54.694Z,28.30
2024-03-07T02:11:56.628Z,31.97
2024-03-07T02:15:59.134Z,27.40
2024-03-07T02:20:01.287Z,26.30
2024-03-07T02:24:02.894Z,27.10
2024-03-07T02:28:07.300Z,25.40
2024-03-07T02:32:10.399Z,27.53
2024-03-07T02:36:11.656Z,28.37
2024-03-07T02:40:14.168Z,28.77
2024-03-07T02:44:15.491Z,28.10
2024-03-07T02:48:18.824Z,30.03
2024-03-07T02:52:20.160Z,29.90
2024-03-07T02:56:21.558Z,27.67
2024-03-07T03:00:30.022Z,28.33
2024-03-07T03:04:31.470Z,29.70
2024-03-07T03:08:32.927Z,28.70
2024-03-07T03:12:35.220Z,26.60
2024-03-07T03:16:46.592Z,27.53
2024-03-07T03:20:40.438Z,29.70
2024-03-07T03:24:42.024Z,31.00
2024-03-07T03:28:43.380Z,30.07
2024-03-07T03:32:46.895Z,29.20
2024-03-07T03:36:48.658Z,28.43
2024-03-07T03:40:50.070Z,28.30
2024-03-07T03:44:51.388Z,30.10
2024-03-07T03:48:52.851Z,27.50
2024-03-07T03:52:54.213Z,31.30
2024-03-07T03:56:55.529Z,27.57
2024-03-07T04:00:58.702Z,29.37
2024-03-07T04:05:00.451Z,29.20
2024-03-07T04:09:01.840Z,29.70
2024-03-07T04:13:03.869Z,28.13
2024-03-07T04:17:07.273Z,28.70
2024-03-07T04:21:09.896Z,29.43
2024-03-07T04:25:11.304Z,27.93
2024-03-07T04:29:12.690Z,29.40
2024-03-07T04:33:14.206Z,27.90
2024-03-07T04:37:15.721Z,28.67
2024-03-07T04:45:25.637Z,26.57
2024-03-07T04:49:28.781Z,27.77
2024-03-07T04:53:30.170Z,25.50
2024-03-07T04:57:31.435Z,27.20
2024-03-07T05:01:33.506Z,23.70
2024-03-07T05:05:34.919Z,27.60
2024-03-07T05:09:36.338Z,27.40
2024-03-07T05:13:37.665Z,28.47
2024-03-07T05:17:39.698Z,26.63
2024-03-07T05:21:41.155Z,26.10
2024-03-07T05:25:42.646Z,26.40
2024-03-07T05:29:44.260Z,27.60
2024-03-07T05:33:45.642Z,28.47
2024-03-07T05:37:47.650Z,28.40
2024-03-07T05:41:49.030Z,27.03
2024-03-07T05:45:50.489Z,26.80
2024-03-07T05:49:52.070Z,26.13
2024-03-07T05:53:54.335Z,27.20
2024-03-07T05:57:56.417Z,29.80
2024-03-07T06:01:57.919Z,30.60
2024-03-07T06:05:59.372Z,27.40
2024-03-07T06:10:01.139Z,28.77
2024-03-07T06:14:05.816Z,25.30
2024-03-07T06:22:18.938Z,25.07
2024-03-07T06:26:22.170Z,26.30
2024-03-07T06:30:24.022Z,29.60
2024-03-07T06:34:26.155Z,25.30
2024-03-07T06:38:27.555Z,25.73
2024-03-07T06:42:29.300Z,26.17
2024-03-07T06:46:31.862Z,27.00
2024-03-07T06:50:38.023Z,25.40
2024-03-07T06:54:36.845Z,25.87
2024-03-07T06:58:39.176Z,25.20
2024-03-07T07:02:41.502Z,28.07
2024-03-07T07:06:43.313Z,26.10
2024-03-07T07:10:44.686Z,27.17
2024-03-07T07:14:46.060Z,24.83
2024-03-07T07:18:47.351Z,22.07
2024-03-07T07:22:49.129Z,24.20
2024-03-07T07:26:51.425Z,26.13
2024-03-07T07:30:52.729Z,23.17
2024-03-07T07:34:54.844Z,22.47
2024-03-07T07:38:56.203Z,25.07
2024-03-07T07:42:57.569Z,24.30
2024-03-07T07:46:58.995Z,23.73
2024-03-07T07:51:00.465Z,24.73
2024-03-07T07:55:01.851Z,25.20
2024-03-07T07:59:05.831Z,20.27
2024-03-07T08:03:07.668Z,21.33
2024-03-07T08:07:09.155Z,20.90
2024-03-07T08:11:12.363Z,18.80
2024-03-07T08:15:14.418Z,21.00
2024-03-07T08:19:15.923Z,19.10
2024-03-07T08:23:17.309Z,18.80
2024-03-07T08:27:18.758Z,19.60
2024-03-07T08:31:20.106Z,20.30
2024-03-07T08:35:22.409Z,17.83
2024-03-07T08:39:23.789Z,19.73
2024-03-07T08:43:25.093Z,18.50
2024-03-07T08:47:26.511Z,17.40
2024-03-07T08:51:27.772Z,18.07
2024-03-07T08:55:29.187Z,18.77
2024-03-07T08:59:30.555Z,18.90
2024-03-07T09:03:32.686Z,18.97
2024-03-07T09:07:33.969Z,18.77
2024-03-07T09:11:37.042Z,20.87
2024-03-07T09:15:38.426Z,19.93
2024-03-07T09:19:39.765Z,18.57
2024-03-07T09:23:42.017Z,20.47
2024-03-07T09:27:43.876Z,12.93
2024-03-07T09:31:46.985Z,18.63
2024-03-07T09:39:56.360Z,19.57
2024-03-07T09:43:59.173Z,22.67
2024-03-07T09:48:01.731Z,17.47
2024-03-07T09:52:12.208Z,18.30
2024-03-07T09:56:14.809Z,18.77
2024-03-07T10:00:29.635Z,18.67
2024-03-07T10:04:41.544Z,19.17
2024-03-07T10:08:44.005Z,19.07
2024-03-07T10:12:45.311Z,20.53
2024-03-07T10:16:47.032Z,19.70
2024-03-07T10:20:48.912Z,32.57
2024-03-07T10:24:59.471Z,20.63
2024-03-07T10:29:00.789Z,24.80
2024-03-07T10:33:03.103Z,18.80
2024-03-07T10:37:05.719Z,18.73
2024-03-07T10:41:09.776Z,19.57
2024-03-07T10:45:11.522Z,17.83
2024-03-07T10:49:16.356Z,17.80
2024-03-07T10:53:42.926Z,18.37
2024-03-07T10:57:51.634Z,18.80
2024-03-07T11:02:00.204Z,19.43
2024-03-07T11:06:04.076Z,18.60
2024-03-07T11:10:07.841Z,18.03
2024-03-07T11:14:11.304Z,17.83
2024-03-07T11:18:13.497Z,19.70
2024-03-07T11:22:33.313Z,17.93
2024-03-07T11:26:34.932Z,17.30
2024-03-07T11:30:36.298Z,17.47
2024-03-07T11:34:41.888Z,18.97
2024-03-07T11:38:47.166Z,17.03
2024-03-07T11:42:48.985Z,22.93
2024-03-07T11:46:50.722Z,16.10
2024-03-07T11:50:52.109Z,17.30
2024-03-07T11:54:53.773Z,15.27
2024-03-07T11:58:57.021Z,15.20
2024-03-07T12:02:59.646Z,13.70
2024-03-07T12:07:01.026Z,16.53
2024-03-07T12:11:03.779Z,13.07
2024-03-07T12:15:09.174Z,12.93
2024-03-07T12:19:10.786Z,14.30
2024-03-07T12:23:12.921Z,13.50
2024-03-07T12:27:16.219Z,11.77
2024-03-07T12:31:18.327Z,13.70
2024-03-07T12:35:19.709Z,14.97
2024-03-07T12:39:28.992Z,12.53
2024-03-07T12:43:33.676Z,12.87
2024-03-07T12:51:43.500Z,12.77
2024-03-07T12:55:44.815Z,13.23
2024-03-07T12:59:46.187Z,13.33
2024-03-07T13:03:48.576Z,12.00
2024-03-07T13:07:50.481Z,11.77
2024-03-07T13:11:51.949Z,12.43
2024-03-07T13:15:55.244Z,12.80
2024-03-07T13:19:58.483Z,11.23
2024-03-07T13:24:00.669Z,11.87
2024-03-07T13:28:09.110Z,11.73
2024-03-07T13:32:12.298Z,12.07
2024-03-07T13:36:18.111Z,10.03
2024-03-07T13:40:25.573Z,12.27
2024-03-07T13:44:30.298Z,11.40
2024-03-07T13:48:34.343Z,12.13
2024-03-07T13:52:37.646Z,12.23
2024-03-07T13:56:52.120Z,11.43
2024-03-07T14:00:57.261Z,12.57
2024-03-07T14:05:31.613Z,11.20
2024-03-07T14:09:53.614Z,11.00
2024-03-07T14:14:03.390Z,11.13
2024-03-07T14:18:26.566Z,10.40
2024-03-07T14:22:33.064Z,9.87
2024-03-07T14:27:11.739Z,11.27
2024-03-07T14:31:13.162Z,11.23
2024-03-07T14:35:34.126Z,11.93
2024-03-07T14:39:37.243Z,10.70
2024-03-07T14:43:39.437Z,11.60
2024-03-07T14:47:40.871Z,9.57
2024-03-07T14:51:51.426Z,11.00
2024-03-07T14:55:46.244Z,9.90
2024-03-07T14:59:49.299Z,9.10
2024-03-07T15:03:50.971Z,10.77
2024-03-07T15:07:54.430Z,11.30
2024-03-07T15:11:55.819Z,10.40
2024-03-07T15:15:59.116Z,9.90
2024-03-07T15:20:00.499Z,11.47
2024-03-07T15:24:04.238Z,9.93
2024-03-07T15:28:18.651Z,12.07
2024-03-07T15:32:20.318Z,10.63
2024-03-07T15:36:22.509Z,10.83
2024-03-07T15:40:24.354Z,10.07
2024-03-07T15:44:26.018Z,12.13
2024-03-07T15:48:27.878Z,11.07
2024-03-07T15:52:29.220Z,12.80
2024-03-07T15:56:31.106Z,12.40
2024-03-07T16:00:34.684Z,12.87
2024-03-07T16:04:36.721Z,12.60
2024-03-07T16:08:39.751Z,12.17
2024-03-07T16:12:41.064Z,11.70
2024-03-07T16:16:42.804Z,11.87
2024-03-07T16:20:46.152Z,12.43
2024-03-07T16:24:47.461Z,12.80
2024-03-07T16:28:48.786Z,14.53
2024-03-07T16:32:53.990Z,13.17
2024-03-07T16:36:56.677Z,14.27
2024-03-07T16:40:58.032Z,11.60
2024-03-07T16:44:59.471Z,12.37
2024-03-07T16:49:00.848Z,11.00
2024-03-07T16:53:06.825Z,10.57
2024-03-07T16:57:08.904Z,11.73
2024-03-07T17:01:12.203Z,12.10
2024-03-07T17:05:18.599Z,13.07
2024-03-07T17:09:19.928Z,12.07
2024-03-07T17:13:22.946Z,12.47
2024-03-07T17:17:25.215Z,13.07
2024-03-07T17:21:27.193Z,11.23
2024-03-07T17:25:31.692Z,10.03
2024-03-07T17:29:33.044Z,12.07
2024-03-07T17:33:35.696Z,11.83
2024-03-07T17:37:39.351Z,11.80
2024-03-07T17:41:41.261Z,10.83
2024-03-07T17:45:42.689Z,12.63
2024-03-07T17:49:44.078Z,12.47
2024-03-07T17:53:47.344Z,12.60
2024-03-07T17:57:49.413Z,13.37
2024-03-07T18:01:50.932Z,13.20
2024-03-07T18:05:54.556Z,11.90
2024-03-07T18:09:56.008Z,12.77
2024-03-07T18:22:14.847Z,13.00
2024-03-07T18:26:16.227Z,12.23
2024-03-07T18:30:21.130Z,13.10
2024-03-07T18:34:22.632Z,12.80
2024-03-07T18:38:26.019Z,13.30
2024-03-07T18:42:31.974Z,13.27
2024-03-07T18:46:34.685Z,12.70
2024-03-07T18:50:40.991Z,13.40
2024-03-07T18:54:42.390Z,12.90
2024-03-07T18:58:45.697Z,12.60
2024-03-07T19:02:47.660Z,11.37
2024-03-07T19:06:48.915Z,14.00
2024-03-07T19:10:56.099Z,13.17
2024-03-07T19:14:57.561Z,12.33
2024-03-07T19:18:58.992Z,11.40
2024-03-07T19:23:00.386Z,12.77
2024-03-07T19:27:01.783Z,11.77
2024-03-07T19:31:03.304Z,13.57
2024-03-07T19:35:05.360Z,12.47
2024-03-07T19:39:09.096Z,11.57
2024-03-07T19:43:10.437Z,12.33
2024-03-07T19:47:13.606Z,13.27
2024-03-07T19:51:15.061Z,13.40
2024-03-07T19:55:18.368Z,11.20
2024-03-07T19:59:20.814Z,12.77
2024-03-07T20:03:23.321Z,14.80
2024-03-07T20:07:25.359Z,13.30
2024-03-07T20:11:26.772Z,14.30
2024-03-07T20:15:28.204Z,12.77
2024-03-07T20:19:31.080Z,12.97
2024-03-07T20:23:33.216Z,13.27
2024-03-07T20:27:35.452Z,13.80
2024-03-07T20:31:37.772Z,13.33
2024-03-07T20:35:39.177Z,14.00
2024-03-07T20:39:42.039Z,14.23
2024-03-07T20:43:45.595Z,14.70
2024-03-07T20:47:51.199Z,13.60
2024-03-07T20:51:53.329Z,14.73
2024-03-07T20:55:54.673Z,13.93
2024-03-07T20:59:56.581Z,14.13
2024-03-07T21:04:00.106Z,13.70
2024-03-07T21:08:02.561Z,13.30
2024-03-07T21:12:04.520Z,16.13
2024-03-07T21:16:07.037Z,16.13
2024-03-07T21:20:15.807Z,15.50
2024-03-07T21:24:17.377Z,15.83
2024-03-07T21:28:18.663Z,17.80
2024-03-07T21:32:20.068Z,15.80
2024-03-07T21:36:21.404Z,16.83
2024-03-07T21:40:23.648Z,15.10
2024-03-07T21:44:25.071Z,16.73
2024-03-07T21:48:27.369Z,16.27
2024-03-07T21:52:28.785Z,18.13
2024-03-07T21:56:30.457Z,16.50
2024-03-07T22:00:32.872Z,15.87
2024-03-07T22:04:35.911Z,17.63
2024-03-07T22:08:37.465Z,18.20
2024-03-07T22:12:42.964Z,15.13
2024-03-07T22:16:51.756Z,17.60
2024-03-07T22:20:53.401Z,17.77
2024-03-07T22:24:56.584Z,19.43
2024-03-07T22:28:58.636Z,18.13
2024-03-07T22:33:00.577Z,17.90
2024-03-07T22:37:02.213Z,16.57
2024-03-07T22:41:06.981Z,19.40
2024-03-07T22:45:11.256Z,19.30
2024-03-07T22:49:12.698Z,19.70
2024-03-07T22:53:14.169Z,16.37
2024-03-07T22:57:15.504Z,17.67
2024-03-07T23:01:18.933Z,20.03
2024-03-07T23:05:22.456Z,17.27
2024-03-07T23:09:25.686Z,17.87
2024-03-07T23:13:27.762Z,17.40
2024-03-07T23:17:29.174Z,18.10
2024-03-07T23:21:30.531Z,19.57
2024-03-07T23:25:31.886Z,18.27
2024-03-07T23:29:33.746Z,17.77
2024-03-07T23:33:35.220Z,17.80
2024-03-07T23:37:36.634Z,17.93
2024-03-07T23:41:39.033Z,17.80
2024-03-07T23:45:53.504Z,18.17
2024-03-07T23:49:55.628Z,17.87
2024-03-07T23:53:57.041Z,19.73
2024-03-07T23:57:58.335Z,17.67
